Time;durP1;ratioP1;P1;durP2;ratioP2;P2;SDS_P1;SDS_P2;PMS_P1;PMS_P2;Temp;Humidity;BMP_temperature;BMP_pressure;BME280_temperature;BME280_humidity;BME280_pressure;Samples;Min_cycle;Max_cycle;Signal;HPM_P1;HPM_P2
2022/06/15 00:01:17;;;;;;;;;;;11.10;99.90;;;;;;5055357;28;19952;-58
2022/06/15 00:03:42;;;;;;;;;;;11.00;99.90;;;;;;5058378;28;19919;-59
2022/06/15 00:06:09;;;;;;;;;;;10.90;99.90;;;;;;5055395;28;19920;-59
2022/06/15 00:08:35;;;;;;;;;;;10.80;99.90;;;;;;5061404;28;20395;-59
2022/06/15 00:11:05;;;;;;;;;;;10.80;99.90;;;;;;5061180;28;19908;-58
2022/06/15 00:13:30;;;;;;;;;;;10.80;99.90;;;;;;5055581;28;19917;-58
2022/06/15 00:15:56;;;;;;;;;;;10.70;99.90;;;;;;5059970;28;19917;-59
2022/06/15 00:18:21;;;;;;;;;;;10.70;99.90;;;;;;5056776;28;19917;-58
2022/06/15 00:20:47;;;;;;;;;;;10.70;99.90;;;;;;5054487;28;19962;-58
2022/06/15 00:23:12;;;;;;;;;;;10.70;99.90;;;;;;5054393;28;20523;-59
2022/06/15 00:25:38;;;;;;;;;;;10.60;99.90;;;;;;5063179;28;19966;-58
2022/06/15 00:28:03;;;;;;;;;;;10.70;99.90;;;;;;5055479;28;20514;-58
2022/06/15 00:30:29;;;;;;;;;;;10.80;99.90;;;;;;5060901;28;20003;-58
2022/06/15 00:32:54;;;;;;;;;;;10.80;99.90;;;;;;5058940;28;19966;-58
2022/06/15 00:35:20;;;;;;;;;;;11.00;99.90;;;;;;5052586;28;19924;-58
2022/06/15 00:37:46;;;;;;;;;;;11.30;99.90;;;;;;5053856;28;20281;-58
2022/06/15 00:40:11;;;;;;;;;;;11.20;99.90;;;;;;5057453;28;20283;-58
2022/06/15 00:42:37;;;;;;;;;;;11.00;99.90;;;;;;5057561;28;19912;-58
2022/06/15 00:45:03;;;;;;;;;;;10.80;99.90;;;;;;5055933;28;19951;-58
2022/06/15 00:47:30;;;;;;;;;;;10.70;99.90;;;;;;5054276;28;19942;-58
2022/06/15 00:49:55;;;;;;;;;;;10.70;99.90;;;;;;5060195;28;19912;-59
2022/06/15 00:52:32;;;;;;;;;;;10.60;99.90;;;;;;5061943;28;20608;-59
2022/06/15 00:54:58;;;;;;;;;;;10.50;99.90;;;;;;5058530;28;20007;-58
2022/06/15 00:57:25;;;;;;;;;;;10.40;99.90;;;;;;5053155;28;20062;-58
2022/06/15 00:59:52;;;;;;;;;;;10.30;99.90;;;;;;5060839;28;19913;-59
2022/06/15 01:02:18;;;;;;;;;;;10.20;99.90;;;;;;5054907;28;19913;-59
2022/06/15 01:04:46;;;;;;;;;;;10.20;99.90;;;;;;5057367;28;20767;-58
2022/06/15 01:07:25;;;;;;;;;;;10.10;99.90;;;;;;5061559;28;20690;-58
2022/06/15 01:10:00;;;;;;;;;;;10.20;99.90;;;;;;5065510;28;19966;-59
2022/06/15 01:12:34;;;;;;;;;;;10.30;99.90;;;;;;5065852;28;20283;-58
2022/06/15 01:15:03;;;;;;;;;;;10.30;99.90;;;;;;5057822;28;19912;-58
2022/06/15 01:18:04;;;;;;;;;;;10.40;99.90;;;;;;5055924;28;20044;-59
2022/06/15 01:20:41;;;;;;;;;;;10.30;99.90;;;;;;5013403;28;20007;-58
2022/06/15 01:23:23;;;;;;;;;;;10.60;99.90;;;;;;5048051;28;19917;-58
2022/06/15 01:26:07;;;;;;;;;;;10.40;99.90;;;;;;5049705;28;19920;-58
2022/06/15 01:28:44;;;;;;;;;;;10.60;99.90;;;;;;5052925;28;19908;-59
2022/06/15 01:31:14;;;;;;;;;;;10.40;99.90;;;;;;5056112;28;19960;-59
2022/06/15 01:33:51;;;;;;;;;;;10.60;99.90;;;;;;5059128;28;19916;-58
2022/06/15 01:36:17;;;;;;;;;;;10.50;99.90;;;;;;5053912;28;19933;-58
2022/06/15 01:38:45;;;;;;;;;;;10.30;99.90;;;;;;5055929;28;19962;-58
2022/06/15 01:41:27;;;;;;;;;;;10.10;99.90;;;;;;5060960;28;19913;-58
2022/06/15 01:44:00;;;;;;;;;;;10.10;99.90;;;;;;5056681;28;19999;-58
2022/06/15 01:46:25;;;;;;;;;;;10.00;99.90;;;;;;5054214;28;19917;-58
2022/06/15 01:48:52;;;;;;;;;;;9.90;99.90;;;;;;5061110;28;19913;-58
2022/06/15 01:51:19;;;;;;;;;;;9.70;99.90;;;;;;5054547;28;19912;-59
2022/06/15 01:53:47;;;;;;;;;;;9.70;99.90;;;;;;5051850;28;19916;-58
2022/06/15 01:56:12;;;;;;;;;;;9.70;99.90;;;;;;5057372;28;19917;-59
2022/06/15 01:58:40;;;;;;;;;;;9.60;99.90;;;;;;5052928;28;19912;-58
2022/06/15 02:01:06;;;;;;;;;;;9.50;99.90;;;;;;5055138;28;19916;-59
2022/06/15 02:03:41;;;;;;;;;;;9.50;99.90;;;;;;5058440;28;20375;-58
2022/06/15 02:06:15;;;;;;;;;;;9.60;99.90;;;;;;5058308;28;19998;-59
2022/06/15 02:08:52;;;;;;;;;;;9.70;99.90;;;;;;5056514;28;19971;-58
2022/06/15 02:11:29;;;;;;;;;;;9.80;99.90;;;;;;5071810;28;20334;-59
2022/06/15 02:13:58;;;;;;;;;;;9.60;99.90;;;;;;5064183;28;19995;-59
2022/06/15 02:16:29;;;;;;;;;;;9.50;99.90;;;;;;5061080;28;19920;-58
2022/06/15 02:18:55;;;;;;;;;;;9.60;99.90;;;;;;5061525;28;19994;-59
2022/06/15 02:21:23;;;;;;;;;;;9.50;99.90;;;;;;5060289;28;20358;-58
2022/06/15 02:23:50;;;;;;;;;;;9.50;99.90;;;;;;5054920;28;19913;-58
2022/06/15 02:26:17;;;;;;;;;;;9.40;99.90;;;;;;5057873;28;20379;-59
2022/06/15 02:28:47;;;;;;;;;;;9.40;99.90;;;;;;5055355;28;19913;-59
2022/06/15 02:31:12;;;;;;;;;;;9.30;99.90;;;;;;5056550;28;19913;-59
2022/06/15 02:33:44;;;;;;;;;;;9.20;99.90;;;;;;5060655;28;19913;-58
2022/06/15 02:36:10;;;;;;;;;;;9.30;99.90;;;;;;5056954;28;19928;-59
2022/06/15 02:38:36;;;;;;;;;;;9.40;99.90;;;;;;5057781;28;19912;-59
2022/06/15 02:41:02;;;;;;;;;;;9.20;99.90;;;;;;5061827;28;20003;-59
2022/06/15 02:43:28;;;;;;;;;;;9.20;99.90;;;;;;5059236;28;20291;-58
2022/06/15 02:45:55;;;;;;;;;;;9.10;99.90;;;;;;5059907;28;19919;-59
2022/06/15 02:48:22;;;;;;;;;;;9.20;99.90;;;;;;5064414;28;19916;-58
2022/06/15 02:50:52;;;;;;;;;;;9.20;99.90;;;;;;5059312;28;20432;-59
2022/06/15 02:53:19;;;;;;;;;;;9.10;99.90;;;;;;5058707;28;19955;-59
2022/06/15 02:55:46;;;;;;;;;;;9.00;99.90;;;;;;5060103;28;19955;-58
2022/06/15 02:58:20;;;;;;;;;;;8.90;99.90;;;;;;5057845;28;19917;-58
2022/06/15 03:00:46;;;;;;;;;;;8.80;99.90;;;;;;5057050;28;19923;-58
2022/06/15 03:03:12;;;;;;;;;;;8.80;99.90;;;;;;5057516;28;19909;-58
2022/06/15 03:05:37;;;;;;;;;;;8.80;99.90;;;;;;5054265;28;19978;-58
2022/06/15 03:08:03;;;;;;;;;;;8.80;99.90;;;;;;5056572;28;20023;-59
2022/06/15 03:10:29;;;;;;;;;;;8.80;99.90;;;;;;5059051;28;19919;-58
2022/06/15 03:12:54;;;;;;;;;;;9.00;99.90;;;;;;5058819;28;19915;-59
2022/06/15 03:15:20;;;;;;;;;;;8.90;99.90;;;;;;5056255;28;19916;-59
2022/06/15 03:17:45;;;;;;;;;;;8.90;99.90;;;;;;5060351;28;19921;-58
2022/06/15 03:20:11;;;;;;;;;;;9.00;99.90;;;;;;5061211;28;19913;-58
2022/06/15 03:22:36;;;;;;;;;;;9.00;99.90;;;;;;5056735;28;19912;-58
2022/06/15 03:25:02;;;;;;;;;;;9.10;99.90;;;;;;5058195;28;19913;-59
2022/06/15 03:27:28;;;;;;;;;;;9.00;99.90;;;;;;5053376;28;19924;-58
2022/06/15 03:29:54;;;;;;;;;;;8.90;99.90;;;;;;5058208;28;19997;-58
2022/06/15 03:32:19;;;;;;;;;;;9.00;99.90;;;;;;5064988;28;19919;-58
2022/06/15 03:34:45;;;;;;;;;;;9.10;99.90;;;;;;5060346;28;19925;-58
2022/06/15 03:37:11;;;;;;;;;;;9.10;99.90;;;;;;5057920;28;19986;-58
2022/06/15 03:39:37;;;;;;;;;;;9.10;99.90;;;;;;5050938;28;19913;-59
2022/06/15 03:42:10;;;;;;;;;;;9.00;99.90;;;;;;5061915;28;19915;-59
2022/06/15 03:44:35;;;;;;;;;;;9.00;99.90;;;;;;5058805;28;20664;-58
2022/06/15 03:47:01;;;;;;;;;;;9.00;99.90;;;;;;5059312;28;19962;-58
2022/06/15 03:49:26;;;;;;;;;;;9.00;99.90;;;;;;5058595;28;19919;-58
2022/06/15 03:51:52;;;;;;;;;;;9.00;99.90;;;;;;5055920;28;19913;-58
2022/06/15 03:54:17;;;;;;;;;;;9.00;99.90;;;;;;5058548;28;19960;-58
2022/06/15 03:56:45;;;;;;;;;;;9.10;99.90;;;;;;5056613;28;19966;-58
2022/06/15 03:59:11;;;;;;;;;;;9.30;99.90;;;;;;5060019;28;19921;-58
2022/06/15 04:01:36;;;;;;;;;;;9.70;99.90;;;;;;5058374;28;19920;-58
2022/06/15 04:04:02;;;;;;;;;;;9.50;99.90;;;;;;5059495;28;19916;-59
2022/06/15 04:06:27;;;;;;;;;;;9.40;99.90;;;;;;5052884;28;19917;-58
2022/06/15 04:08:53;;;;;;;;;;;9.50;99.90;;;;;;5059958;28;20566;-59
2022/06/15 04:14:04;;;;;;;;;;;9.50;99.90;;;;;;5059126;28;19958;-59
2022/06/15 04:16:30;;;;;;;;;;;9.60;99.90;;;;;;5065362;28;19916;-58
2022/06/15 04:18:56;;;;;;;;;;;9.70;99.90;;;;;;5058561;28;20402;-59
2022/06/15 04:21:22;;;;;;;;;;;9.70;99.90;;;;;;5057511;28;19913;-59
2022/06/15 04:23:48;;;;;;;;;;;9.80;99.90;;;;;;5064707;28;20425;-58
2022/06/15 04:26:13;;;;;;;;;;;10.10;99.90;;;;;;5058247;28;20283;-58
2022/06/15 04:28:40;;;;;;;;;;;10.10;99.90;;;;;;5054322;28;19920;-59
2022/06/15 04:31:06;;;;;;;;;;;10.20;99.90;;;;;;5057580;28;19924;-58
2022/06/15 04:33:32;;;;;;;;;;;10.20;99.90;;;;;;5054938;28;20049;-59
2022/06/15 04:35:57;;;;;;;;;;;10.20;99.90;;;;;;5056493;28;19929;-59
2022/06/15 04:38:23;;;;;;;;;;;10.20;99.90;;;;;;5054406;28;19955;-59
2022/06/15 04:40:49;;;;;;;;;;;10.20;99.90;;;;;;5058205;28;20457;-58
2022/06/15 04:43:14;;;;;;;;;;;10.30;99.90;;;;;;5050854;28;19970;-59
2022/06/15 04:45:40;;;;;;;;;;;10.50;99.90;;;;;;5053542;28;20003;-58
2022/06/15 04:48:05;;;;;;;;;;;10.60;99.90;;;;;;5054835;28;19986;-59
2022/06/15 04:50:31;;;;;;;;;;;10.80;99.90;;;;;;5053633;28;19912;-58
2022/06/15 04:52:57;;;;;;;;;;;10.80;99.90;;;;;;5052270;28;19909;-59
2022/06/15 04:55:23;;;;;;;;;;;10.90;99.90;;;;;;5053580;28;20392;-59
2022/06/15 04:57:54;;;;;;;;;;;11.00;99.90;;;;;;5052823;28;19920;-59
2022/06/15 05:00:20;;;;;;;;;;;11.20;99.90;;;;;;5053076;28;19936;-58
2022/06/15 05:02:46;;;;;;;;;;;11.40;99.90;;;;;;5053270;28;19996;-59
2022/06/15 05:05:11;;;;;;;;;;;11.50;99.90;;;;;;5050952;28;20015;-59
2022/06/15 05:07:37;;;;;;;;;;;11.60;99.90;;;;;;5054879;28;19991;-59
2022/06/15 05:10:04;;;;;;;;;;;11.70;99.90;;;;;;5062443;28;20359;-59
2022/06/15 05:12:29;;;;;;;;;;;11.80;99.90;;;;;;5055910;28;20403;-58
2022/06/15 05:14:55;;;;;;;;;;;11.90;99.90;;;;;;5056342;28;19947;-58
2022/06/15 05:17:21;;;;;;;;;;;12.00;99.90;;;;;;5051334;28;19970;-59
2022/06/15 05:19:47;;;;;;;;;;;12.10;99.90;;;;;;5051580;28;19913;-58
2022/06/15 05:22:12;;;;;;;;;;;12.20;99.90;;;;;;5050136;28;19974;-59
2022/06/15 05:24:38;;;;;;;;;;;12.30;99.90;;;;;;5054594;28;19917;-59
2022/06/15 05:27:04;;;;;;;;;;;12.50;99.90;;;;;;5051880;28;20469;-59
2022/06/15 05:29:30;;;;;;;;;;;12.60;99.90;;;;;;5053666;28;19951;-58
2022/06/15 05:31:56;;;;;;;;;;;12.70;99.90;;;;;;5052633;28;20425;-59
2022/06/15 05:34:22;;;;;;;;;;;12.70;99.90;;;;;;5052104;28;19936;-58
2022/06/15 05:36:48;;;;;;;;;;;12.70;99.90;;;;;;5056806;28;20346;-59
2022/06/15 05:39:13;;;;;;;;;;;12.90;99.90;;;;;;5056690;28;19956;-59
2022/06/15 05:41:39;;;;;;;;;;;13.00;99.90;;;;;;5052519;28;19920;-59
2022/06/15 05:46:54;;;;;;;;;;;13.20;99.90;;;;;;5057286;28;20642;-59
2022/06/15 05:49:19;;;;;;;;;;;13.30;99.90;;;;;;5057631;28;20006;-59
2022/06/15 05:51:45;;;;;;;;;;;13.40;99.90;;;;;;5051249;28;19951;-59
2022/06/15 05:54:11;;;;;;;;;;;13.40;99.90;;;;;;5050952;28;19930;-59
2022/06/15 05:56:36;;;;;;;;;;;13.60;99.90;;;;;;5050364;28;19920;-58
2022/06/15 05:59:02;;;;;;;;;;;13.70;99.90;;;;;;5052284;28;20466;-58
2022/06/15 06:01:35;;;;;;;;;;;13.70;99.90;;;;;;5050521;28;19919;-59
2022/06/15 06:04:00;;;;;;;;;;;13.80;99.90;;;;;;5058721;28;20252;-59
2022/06/15 06:06:27;;;;;;;;;;;13.90;99.90;;;;;;5057130;28;19932;-59
2022/06/15 06:08:53;;;;;;;;;;;14.00;99.90;;;;;;5054340;28;20394;-58
2022/06/15 06:11:19;;;;;;;;;;;14.00;99.90;;;;;;5050379;28;20355;-58
2022/06/15 06:13:44;;;;;;;;;;;14.20;99.90;;;;;;5054587;28;19909;-59
2022/06/15 06:16:10;;;;;;;;;;;14.30;99.90;;;;;;5057645;28;19966;-59
2022/06/15 06:18:36;;;;;;;;;;;14.40;99.90;;;;;;5059810;28;19937;-58
2022/06/15 06:21:02;;;;;;;;;;;14.40;99.90;;;;;;5053903;28;19932;-59
2022/06/15 06:23:27;;;;;;;;;;;14.60;99.90;;;;;;5060320;28;19920;-59
2022/06/15 06:25:53;;;;;;;;;;;14.70;99.90;;;;;;5054807;28;20343;-59
2022/06/15 06:28:21;;;;;;;;;;;14.80;99.90;;;;;;5062138;28;19944;-59
2022/06/15 06:30:47;;;;;;;;;;;15.00;99.90;;;;;;5060502;28;19999;-59
2022/06/15 06:33:12;;;;;;;;;;;15.10;99.90;;;;;;5061274;28;19995;-59
2022/06/15 06:35:38;;;;;;;;;;;15.00;99.90;;;;;;5052748;28;20376;-59
2022/06/15 06:38:04;;;;;;;;;;;15.20;99.90;;;;;;5053649;28;20295;-60
2022/06/15 06:40:29;;;;;;;;;;;15.20;99.90;;;;;;5054592;28;19916;-58
2022/06/15 06:42:55;;;;;;;;;;;15.30;99.90;;;;;;5052241;28;19913;-59
2022/06/15 06:45:20;;;;;;;;;;;15.50;99.90;;;;;;5058269;28;19917;-59
2022/06/15 06:47:46;;;;;;;;;;;15.60;99.90;;;;;;5059726;28;20007;-59
2022/06/15 06:50:11;;;;;;;;;;;15.70;99.90;;;;;;5052372;28;20033;-58
2022/06/15 06:52:37;;;;;;;;;;;15.80;99.90;;;;;;5065009;28;19912;-59
2022/06/15 06:55:03;;;;;;;;;;;15.90;99.90;;;;;;5065199;28;20406;-59
2022/06/15 06:57:28;;;;;;;;;;;16.00;99.90;;;;;;5058785;28;20386;-58
2022/06/15 06:59:54;;;;;;;;;;;16.20;99.90;;;;;;5057974;28;20424;-59
2022/06/15 07:02:19;;;;;;;;;;;16.20;99.90;;;;;;5058283;28;20443;-58
2022/06/15 07:04:45;;;;;;;;;;;16.50;99.90;;;;;;5053179;28;19986;-59
2022/06/15 07:07:10;;;;;;;;;;;16.60;99.90;;;;;;5064285;28;19920;-58
2022/06/15 07:09:36;;;;;;;;;;;16.70;99.90;;;;;;5061513;28;20004;-59
2022/06/15 07:12:03;;;;;;;;;;;16.70;99.90;;;;;;5063983;28;20373;-59
2022/06/15 07:14:28;;;;;;;;;;;16.80;99.90;;;;;;5060808;28;19912;-59
2022/06/15 07:16:54;;;;;;;;;;;17.00;99.90;;;;;;5053104;28;20056;-58
2022/06/15 07:19:19;;;;;;;;;;;17.00;99.90;;;;;;5060384;28;20269;-59
2022/06/15 07:21:45;;;;;;;;;;;17.20;99.90;;;;;;5057474;28;19953;-59
2022/06/15 07:24:10;;;;;;;;;;;17.30;99.90;;;;;;5060336;28;20426;-59
2022/06/15 07:26:41;;;;;;;;;;;17.30;99.90;;;;;;5055351;28;19973;-59
2022/06/15 07:29:08;;;;;;;;;;;17.50;99.90;;;;;;5064688;28;19912;-59
2022/06/15 07:31:36;;;;;;;;;;;17.60;99.90;;;;;;5048793;28;20499;-59
2022/06/15 07:34:02;;;;;;;;;;;17.60;99.90;;;;;;5059619;28;19913;-59
2022/06/15 07:36:27;;;;;;;;;;;17.80;99.90;;;;;;5051774;28;19928;-59
2022/06/15 07:38:54;;;;;;;;;;;17.80;99.90;;;;;;5059116;28;19913;-58
2022/06/15 07:41:20;;;;;;;;;;;17.90;99.90;;;;;;5066064;28;19931;-59
2022/06/15 07:43:45;;;;;;;;;;;18.10;99.90;;;;;;5064861;28;19912;-59
2022/06/15 07:46:11;;;;;;;;;;;18.10;99.90;;;;;;5055102;28;19935;-60
2022/06/15 07:51:33;;;;;;;;;;;18.10;99.90;;;;;;5029165;28;20003;-59
2022/06/15 07:53:59;;;;;;;;;;;18.10;99.90;;;;;;5060627;28;20362;-60
2022/06/15 07:56:24;;;;;;;;;;;18.30;99.90;;;;;;5059960;28;19917;-59
2022/06/15 07:58:50;;;;;;;;;;;18.50;99.90;;;;;;5056765;28;19921;-59
2022/06/15 08:01:16;;;;;;;;;;;18.80;99.90;;;;;;5064529;28;19917;-59
2022/06/15 08:03:41;;;;;;;;;;;18.80;99.90;;;;;;5050710;28;19917;-59
2022/06/15 08:06:07;;;;;;;;;;;19.00;99.90;;;;;;5055831;28;19920;-59
2022/06/15 08:08:32;;;;;;;;;;;18.90;99.90;;;;;;5056608;28;19912;-58
2022/06/15 08:10:58;;;;;;;;;;;19.70;99.90;;;;;;5058776;28;20023;-59
2022/06/15 08:13:23;;;;;;;;;;;20.20;99.90;;;;;;5055327;28;19913;-59
2022/06/15 08:15:50;;;;;;;;;;;20.30;99.90;;;;;;5058233;28;19943;-59
2022/06/15 08:18:17;;;;;;;;;;;21.00;99.90;;;;;;5053608;28;20245;-59
2022/06/15 08:20:55;;;;;;;;;;;21.50;99.90;;;;;;5059329;28;19908;-59
2022/06/15 08:23:22;;;;;;;;;;;21.80;99.90;;;;;;5054666;28;20395;-59
2022/06/15 08:25:49;;;;;;;;;;;22.80;99.50;;;;;;5055759;28;19923;-60
2022/06/15 08:28:18;;;;;;;;;;;23.30;97.80;;;;;;5055556;28;19913;-60
2022/06/15 08:30:43;;;;;;;;;;;23.50;96.80;;;;;;5055476;28;19913;-60
2022/06/15 08:33:09;;;;;;;;;;;23.50;98.30;;;;;;5059067;28;19934;-60
2022/06/15 08:35:37;;;;;;;;;;;24.00;94.90;;;;;;5048364;28;19977;-59
2022/06/15 08:38:06;;;;;;;;;;;23.90;95.40;;;;;;5065401;28;19986;-59
2022/06/15 08:40:36;;;;;;;;;;;22.50;96.70;;;;;;5053475;28;20320;-59
2022/06/15 08:43:10;;;;;;;;;;;23.40;97.90;;;;;;5053480;28;20020;-59
2022/06/15 08:45:38;;;;;;;;;;;23.50;96.40;;;;;;5052637;28;19912;-59
2022/06/15 08:48:19;;;;;;;;;;;23.90;96.00;;;;;;5055478;28;20003;-59
2022/06/15 08:50:54;;;;;;;;;;;23.80;94.70;;;;;;5059419;28;20004;-59
2022/06/15 08:53:24;;;;;;;;;;;24.40;92.90;;;;;;5055291;28;20366;-60
2022/06/15 08:55:59;;;;;;;;;;;24.90;92.60;;;;;;5057080;28;19917;-60
2022/06/15 08:58:33;;;;;;;;;;;24.60;92.60;;;;;;5058672;28;20395;-59
2022/06/15 09:01:02;;;;;;;;;;;25.00;92.30;;;;;;5052400;28;19909;-59
2022/06/15 09:03:42;;;;;;;;;;;25.10;90.50;;;;;;5063915;28;20010;-59
2022/06/15 09:06:21;;;;;;;;;;;24.70;92.20;;;;;;5055013;28;20498;-59
2022/06/15 09:09:02;;;;;;;;;;;24.10;93.10;;;;;;5054221;28;19912;-60
2022/06/15 09:11:53;;;;;;;;;;;23.90;94.60;;;;;;5055764;28;20505;-60
2022/06/15 09:14:26;;;;;;;;;;;25.30;91.40;;;;;;5060745;28;19912;-59
2022/06/15 09:16:55;;;;;;;;;;;25.50;90.20;;;;;;5047457;28;19916;-60
2022/06/15 09:19:26;;;;;;;;;;;26.00;90.50;;;;;;5050469;28;20451;-60
2022/06/15 09:21:59;;;;;;;;;;;25.00;90.10;;;;;;5048940;28;19917;-59
2022/06/15 09:24:31;;;;;;;;;;;24.90;91.90;;;;;;5050632;28;20233;-60
2022/06/15 09:26:58;;;;;;;;;;;24.80;91.40;;;;;;5056565;28;19916;-59
2022/06/15 09:29:26;;;;;;;;;;;25.40;90.40;;;;;;5050721;28;20023;-60
2022/06/15 09:31:55;;;;;;;;;;;25.40;89.70;;;;;;5063223;28;20008;-60
2022/06/15 09:34:27;;;;;;;;;;;26.20;90.50;;;;;;5049855;28;19920;-59
2022/06/15 09:36:56;;;;;;;;;;;26.50;85.40;;;;;;5046685;28;20019;-60
2022/06/15 09:39:22;;;;;;;;;;;26.50;88.50;;;;;;5054295;28;20000;-59
2022/06/15 09:42:09;;;;;;;;;;;26.70;85.20;;;;;;5053213;28;20032;-59
2022/06/15 09:44:35;;;;;;;;;;;26.10;86.90;;;;;;5056514;28;20107;-60
2022/06/15 09:47:16;;;;;;;;;;;27.20;85.60;;;;;;5054485;28;19913;-59
2022/06/15 09:49:42;;;;;;;;;;;27.20;83.50;;;;;;5048723;28;20061;-59
2022/06/15 09:52:17;;;;;;;;;;;26.80;84.80;;;;;;5055337;28;20394;-60
2022/06/15 09:54:49;;;;;;;;;;;26.50;82.10;;;;;;5048982;28;20376;-59
2022/06/15 09:57:15;;;;;;;;;;;26.60;83.10;;;;;;5059352;28;19923;-60
2022/06/15 09:59:41;;;;;;;;;;;26.80;84.10;;;;;;5051348;28;19908;-59
2022/06/15 10:02:13;;;;;;;;;;;26.70;81.60;;;;;;5052651;28;20395;-59
2022/06/15 10:04:39;;;;;;;;;;;26.70;80.00;;;;;;5050900;28;19917;-59
2022/06/15 10:07:11;;;;;;;;;;;26.40;81.90;;;;;;5054129;28;19963;-60
2022/06/15 10:09:37;;;;;;;;;;;26.40;81.90;;;;;;5052403;28;19916;-59
2022/06/15 10:15:11;;;;;;;;;;;27.60;80.80;;;;;;5053563;28;20030;-60
2022/06/15 10:17:39;;;;;;;;;;;28.10;81.20;;;;;;5049848;28;19960;-60
2022/06/15 10:20:05;;;;;;;;;;;28.10;77.40;;;;;;5058387;28;19913;-60
2022/06/15 10:22:41;;;;;;;;;;;27.70;77.10;;;;;;5051654;28;20042;-59
2022/06/15 10:25:10;;;;;;;;;;;27.40;77.50;;;;;;5053627;28;20423;-60
2022/06/15 10:27:37;;;;;;;;;;;27.50;78.30;;;;;;5061447;28;19995;-59
2022/06/15 10:30:12;;;;;;;;;;;27.80;76.70;;;;;;5056198;28;20389;-59
2022/06/15 10:32:57;;;;;;;;;;;28.30;75.80;;;;;;5056614;28;19913;-59
2022/06/15 10:35:23;;;;;;;;;;;29.00;76.20;;;;;;5055167;28;20041;-60
2022/06/15 10:37:54;;;;;;;;;;;29.50;74.00;;;;;;5058527;28;20411;-60
2022/06/15 10:40:22;;;;;;;;;;;29.20;73.40;;;;;;5058885;28;20539;-59
2022/06/15 10:42:53;;;;;;;;;;;30.50;73.70;;;;;;5052234;28;20000;-60
2022/06/15 10:45:22;;;;;;;;;;;31.20;72.30;;;;;;5060338;28;19912;-59
2022/06/15 10:48:02;;;;;;;;;;;30.00;72.10;;;;;;5056831;28;19983;-60
2022/06/15 10:50:33;;;;;;;;;;;30.70;71.90;;;;;;5050388;28;19924;-59
2022/06/15 10:53:03;;;;;;;;;;;31.80;69.20;;;;;;5050701;28;19917;-60
2022/06/15 11:04:18;;;;;;;;;;;30.70;69.80;;;;;;5068263;28;20352;-60
2022/06/15 11:06:45;;;;;;;;;;;30.50;67.20;;;;;;5057084;28;19913;-60
2022/06/15 11:09:22;;;;;;;;;;;30.00;71.30;;;;;;5063612;28;20061;-60
2022/06/15 11:11:49;;;;;;;;;;;30.40;72.60;;;;;;5054151;28;19915;-60
2022/06/15 11:14:43;;;;;;;;;;;31.60;69.90;;;;;;5061648;28;19918;-60
2022/06/15 11:20:00;;;;;;;;;;;30.30;66.80;;;;;;5056624;28;19927;-60
2022/06/15 11:22:27;;;;;;;;;;;30.30;70.40;;;;;;5054910;28;19913;-60
2022/06/15 11:25:06;;;;;;;;;;;30.60;67.60;;;;;;5055766;28;19916;-61
2022/06/15 11:27:35;;;;;;;;;;;31.70;66.60;;;;;;5060081;28;19916;-60
2022/06/15 11:30:19;;;;;;;;;;;31.80;66.90;;;;;;5056104;28;19913;-60
2022/06/15 11:32:48;;;;;;;;;;;33.10;66.80;;;;;;5062048;28;19919;-59
2022/06/15 11:35:14;;;;;;;;;;;33.10;65.90;;;;;;5054938;28;19955;-59
2022/06/15 11:37:58;;;;;;;;;;;33.00;63.40;;;;;;5051840;28;19917;-60
2022/06/15 11:40:30;;;;;;;;;;;32.60;64.90;;;;;;5055710;28;19912;-60
2022/06/15 11:42:56;;;;;;;;;;;34.00;64.90;;;;;;5055942;28;20291;-60
2022/06/15 11:45:31;;;;;;;;;;;33.30;63.90;;;;;;5060206;28;19917;-60
2022/06/15 11:48:09;;;;;;;;;;;32.80;65.30;;;;;;5062377;28;19913;-60
2022/06/15 11:50:50;;;;;;;;;;;30.90;66.10;;;;;;5058354;28;20307;-59
2022/06/15 11:53:15;;;;;;;;;;;31.40;65.50;;;;;;5054874;28;19913;-59
2022/06/15 11:55:41;;;;;;;;;;;31.10;64.90;;;;;;5057292;28;19912;-59
2022/06/15 11:58:17;;;;;;;;;;;32.10;63.50;;;;;;5056275;28;19923;-60
2022/06/15 12:00:54;;;;;;;;;;;31.00;63.20;;;;;;5055613;28;19912;-59
2022/06/15 12:03:22;;;;;;;;;;;31.20;62.40;;;;;;5053635;28;19977;-59
2022/06/15 12:05:52;;;;;;;;;;;30.70;65.00;;;;;;5065609;28;19921;-60
2022/06/15 12:08:30;;;;;;;;;;;31.70;62.50;;;;;;5061468;28;20010;-59
2022/06/15 12:11:01;;;;;;;;;;;32.20;60.50;;;;;;5063137;28;19948;-60
2022/06/15 12:13:35;;;;;;;;;;;31.50;65.00;;;;;;5054028;28;20584;-60
2022/06/15 12:16:10;;;;;;;;;;;33.20;63.10;;;;;;5055236;28;20339;-59
2022/06/15 12:18:47;;;;;;;;;;;32.60;63.70;;;;;;5052898;28;19917;-59
2022/06/15 12:21:31;;;;;;;;;;;32.60;62.40;;;;;;5053839;28;19912;-60
2022/06/15 12:23:59;;;;;;;;;;;33.70;61.70;;;;;;5059717;28;19934;-60
2022/06/15 12:26:25;;;;;;;;;;;33.70;59.00;;;;;;5060953;28;19962;-60
2022/06/15 12:29:01;;;;;;;;;;;33.80;60.90;;;;;;5061402;28;19948;-60
2022/06/15 12:31:38;;;;;;;;;;;33.40;62.40;;;;;;5051015;28;20003;-59
2022/06/15 12:34:08;;;;;;;;;;;31.60;61.80;;;;;;5058466;28;19981;-60
2022/06/15 12:36:41;;;;;;;;;;;32.10;61.50;;;;;;5053105;28;19936;-60
2022/06/15 12:39:21;;;;;;;;;;;31.80;62.60;;;;;;5055990;28;19917;-60
2022/06/15 12:44:53;;;;;;;;;;;31.90;59.40;;;;;;5056969;28;19923;-59
2022/06/15 12:47:21;;;;;;;;;;;34.10;59.00;;;;;;5052498;28;19913;-59
2022/06/15 12:49:46;;;;;;;;;;;35.00;58.50;;;;;;5054853;28;19917;-60
2022/06/15 12:52:32;;;;;;;;;;;34.30;58.80;;;;;;5052558;28;19996;-60
2022/06/15 12:55:03;;;;;;;;;;;33.80;58.50;;;;;;5057379;28;19958;-59
2022/06/15 12:57:36;;;;;;;;;;;33.60;57.10;;;;;;5056503;28;20405;-60
2022/06/15 13:00:13;;;;;;;;;;;34.10;58.40;;;;;;5054453;28;19917;-60
2022/06/15 13:02:57;;;;;;;;;;;33.80;58.20;;;;;;5054064;28;19912;-60
2022/06/15 13:05:25;;;;;;;;;;;33.20;57.70;;;;;;5062617;28;19917;-60
2022/06/15 13:08:10;;;;;;;;;;;34.00;59.20;;;;;;5059833;28;19924;-60
2022/06/15 13:10:35;;;;;;;;;;;33.40;57.60;;;;;;5060757;28;20390;-60
2022/06/15 13:13:03;;;;;;;;;;;33.20;60.00;;;;;;5049930;28;20041;-60
2022/06/15 13:15:31;;;;;;;;;;;34.00;59.70;;;;;;5058860;28;19912;-59
2022/06/15 13:18:14;;;;;;;;;;;33.50;58.00;;;;;;5059258;28;19943;-60
2022/06/15 13:20:46;;;;;;;;;;;32.40;57.50;;;;;;5058639;28;20011;-60
2022/06/15 13:23:31;;;;;;;;;;;34.10;57.10;;;;;;5051861;28;19961;-60
2022/06/15 13:25:59;;;;;;;;;;;33.60;56.80;;;;;;5053344;28;19908;-59
2022/06/15 13:28:30;;;;;;;;;;;33.10;57.90;;;;;;5051549;28;19920;-60
2022/06/15 13:30:58;;;;;;;;;;;34.30;55.90;;;;;;5051198;28;20406;-60
2022/06/15 13:33:49;;;;;;;;;;;34.90;55.30;;;;;;5054405;28;20007;-60
2022/06/15 13:36:17;;;;;;;;;;;35.50;54.70;;;;;;5045521;28;19928;-61
2022/06/15 13:38:44;;;;;;;;;;;37.40;54.60;;;;;;5047369;28;20339;-60
2022/06/15 13:41:09;;;;;;;;;;;36.80;53.90;;;;;;5045392;28;20324;-60
2022/06/15 13:43:46;;;;;;;;;;;35.20;54.50;;;;;;5051253;28;20012;-60
2022/06/15 13:46:41;;;;;;;;;;;34.50;55.80;;;;;;5052026;28;19999;-60
2022/06/15 13:49:11;;;;;;;;;;;32.90;55.90;;;;;;5052233;28;20214;-60
2022/06/15 13:51:40;;;;;;;;;;;33.90;56.30;;;;;;5058631;28;19923;-60
2022/06/15 13:54:21;;;;;;;;;;;34.60;56.50;;;;;;5054761;28;20449;-60
2022/06/15 13:57:05;;;;;;;;;;;34.60;55.20;;;;;;5054458;28;19920;-60
2022/06/15 13:59:38;;;;;;;;;;;34.00;55.40;;;;;;5051711;28;19947;-60
2022/06/15 14:02:12;;;;;;;;;;;34.10;55.40;;;;;;5053814;28;19951;-60
2022/06/15 14:04:45;;;;;;;;;;;34.70;56.20;;;;;;5053841;28;19919;-60
2022/06/15 14:07:30;;;;;;;;;;;34.20;57.10;;;;;;5058226;28;20558;-59
2022/06/15 14:10:13;;;;;;;;;;;33.70;55.50;;;;;;5049213;28;20459;-60
2022/06/15 14:12:57;;;;;;;;;;;32.30;57.70;;;;;;5056226;28;19959;-60
2022/06/15 14:15:45;;;;;;;;;;;32.60;56.80;;;;;;5051176;28;19917;-60
2022/06/15 14:18:23;;;;;;;;;;;33.40;58.50;;;;;;5057968;28;19950;-60
2022/06/15 14:20:48;;;;;;;;;;;35.50;54.50;;;;;;5055642;28;19920;-60
2022/06/15 14:23:25;;;;;;;;;;;34.30;56.30;;;;;;5048452;28;20001;-60
2022/06/15 14:25:51;;;;;;;;;;;33.60;56.20;;;;;;5052669;28;19920;-59
2022/06/15 14:28:20;;;;;;;;;;;32.70;56.10;;;;;;5061976;28;19918;-60
2022/06/15 14:30:49;;;;;;;;;;;32.50;56.30;;;;;;5055699;28;20016;-59
2022/06/15 14:33:24;;;;;;;;;;;33.20;56.60;;;;;;5055224;28;20220;-59
2022/06/15 14:35:58;;;;;;;;;;;34.20;55.50;;;;;;5052168;28;19932;-60
2022/06/15 14:38:24;;;;;;;;;;;34.30;55.90;;;;;;5056243;28;19991;-60
2022/06/15 14:40:51;;;;;;;;;;;34.80;54.80;;;;;;5064559;28;19921;-60
2022/06/15 14:43:19;;;;;;;;;;;35.80;52.80;;;;;;5057364;28;20633;-61
2022/06/15 14:45:48;;;;;;;;;;;35.50;53.60;;;;;;5056056;28;19994;-60
2022/06/15 14:48:23;;;;;;;;;;;35.80;54.80;;;;;;5058554;28;20379;-60
2022/06/15 14:51:04;;;;;;;;;;;36.70;52.90;;;;;;5059699;28;20410;-60
2022/06/15 14:53:29;;;;;;;;;;;37.10;51.90;;;;;;5059180;28;20026;-60
2022/06/15 14:56:02;;;;;;;;;;;36.40;52.50;;;;;;5055853;28;19954;-60
2022/06/15 14:58:28;;;;;;;;;;;35.60;54.70;;;;;;5052555;28;19916;-60